• Join FlightAware (Why Join?)
  • Login
  • US Flag 
09:56PM EDT


 

Airport Tracker/Info


-or-


 

Live Flight TrackerFlight Track Log ✈ N929SR ✈ 06-May-2013 ✈ KTPA - KSDL

Flight Track Log - Related Links

Times and Time Zones

All times are in EDT time to prevent confusion due to time zone crossing. See the N929SR flight status page for this flight to view local times or setup timezone preferences in your user account.

Time Position Orientation Groundspeed Altitude Reporting Facility
EDT Latitude Longitude Course Direction KTS MPH feet Rate Location/Type
05:49PM 28.0700 -82.5208 328° Northwest 253 291 5,000  Level Jacksonville Center
05:50PM 28.1350 -82.5653 329° Northwest 260 299 8,100 3,300 Climbing Jacksonville Center
05:51PM 28.2017 -82.6194 324° Northwest 272 313 11,600 3,480 Climbing Jacksonville Center
05:52PM 28.2708 -82.6733 326° Northwest 295 339 15,100 3,240 Climbing Jacksonville Center
05:53PM 28.3439 -82.7297 326° Northwest 306 352 18,100 3,000 Climbing Jacksonville Center
05:54PM 28.6382 -82.8510 328° Northwest  Level FlightAware Approximate
05:54PM 28.4169 -82.7864 326° Northwest 311 358 21,100  Level Jacksonville Center
05:56PM 28.5797 -82.8093 328° Northwest  Level FlightAware Approximate
05:56PM 28.6175 -82.8381 328° Northwest 359 413 25,100  Level Jacksonville Center
05:57PM 28.6967 -82.8950 328° Northwest 367 422 26,900 2,100 Climbing Jacksonville Center
05:58PM 28.7886 -82.9589 329° Northwest 374 430 29,300 2,400 Climbing Jacksonville Center
05:59PM 28.8761 -83.0231 327° Northwest 379 436 31,800 2,280 Climbing Jacksonville Center
06:00PM 28.9658 -83.0847 329° Northwest 379 436 33,900 1,980 Climbing Jacksonville Center
06:01PM 29.0575 -83.1467 329° Northwest 379 436 35,800 1,080 Climbing Jacksonville Center
06:02PM 29.1514 -83.2136 328° Northwest 384 442 36,100 1,080 Climbing Jacksonville Center
06:03PM 29.2472 -83.2806 329° Northwest 397 457 38,000 960 Climbing Jacksonville Center
06:05PM 29.3926 -83.3767 334° Northwest  Level FlightAware Approximate
06:06PM 29.5283 -83.4772 334° Northwest 392 451 40,000  Level Jacksonville Center
06:08PM 29.7319 -83.6244 328° Northwest 427 491 40,000  Level Jacksonville Center
06:10PM 29.7647 -83.8180 281° West  Level FlightAware Approximate
06:10PM 29.8622 -83.8169 281° West 388 447 40,000  Level Jacksonville Center
06:12PM 29.8640 -84.0143 271° West  Level FlightAware Approximate
06:12PM 29.9167 -84.0500 271° West 376 433 40,000  Level Jacksonville Center
06:14PM 29.9750 -84.2928 286° West 376 433 40,000  Level Jacksonville Center
06:15PM 30.0028 -84.4108 285° West 376 433 40,000  Level Jacksonville Center
06:16PM 30.0328 -84.5264 287° West 376 433 40,000  Level Jacksonville Center
06:17PM 30.0603 -84.6444 285° West 376 433 40,000  Level Jacksonville Center
06:18PM 30.0881 -84.7578 286° West 376 433 40,000  Level Jacksonville Center
06:19PM 30.1133 -84.8711 284° West 376 433 40,000  Level Jacksonville Center
06:21PM 30.1364 -85.0660 278° West  Level FlightAware Approximate
06:22PM 30.1914 -85.1994 278° West 376 433 40,000  Level Jacksonville Center
06:23PM 30.2186 -85.3133 285° West 376 433 40,000  Level Jacksonville Center
06:24PM 30.2453 -85.4414 284° West 381 438 40,000  Level Jacksonville Center
06:25PM 30.2725 -85.5406 288° West 369 425 40,000  Level Jacksonville Center
06:27PM 30.2523 -85.7362 263° West  Level FlightAware Approximate
06:27PM 30.3239 -85.7706 263° West 369 425 40,000  Level Jacksonville Center
06:29PM 30.3747 -86.0033 284° West 369 425 40,000  Level Jacksonville Center
06:30PM 30.4031 -86.1175 286° West 369 425 40,000  Level Jacksonville Center
06:32PM 30.4536 -86.3481 284° West 375 432 40,000  Level Jacksonville Center
06:34PM 30.4922 -86.5325 284° West 375 432 40,000  Level Jacksonville Center
06:35PM 30.5203 -86.6444 286° West 375 432 40,000  Level Jacksonville Center
06:36PM 30.5461 -86.7614 284° West 375 432 40,000  Level Jacksonville Center
06:37PM 30.5717 -86.8758 285° West 375 432 40,000  Level Jacksonville Center
06:39PM 30.6281 -87.1394 284° West 370 426 40,000  Level Houston Center
06:40PM 30.6581 -87.2794 284° West 372 428 40,000  Level Houston Center
06:41PM 30.6833 -87.3944 284° West 369 425 40,000  Level Houston Center
06:42PM 30.7078 -87.5111 284° West 371 427 40,000  Level Houston Center
06:43PM 30.7322 -87.6272 284° West 371 427 40,000  Level Houston Center
06:44PM 30.7581 -87.7564 283° West 370 426 40,000  Level Houston Center
06:45PM 30.7839 -87.8733 284° West 374 430 40,000  Level Houston Center
06:46PM 30.8081 -87.9906 284° West 373 429 40,000  Level Houston Center
06:47PM 30.8319 -88.1089 283° West 376 433 40,000  Level Houston Center
06:48PM 30.8572 -88.2281 284° West 381 438 40,000  Level Houston Center
06:49PM 30.8869 -88.3706 284° West 380 437 40,000  Level Houston Center
06:51PM 30.9006 -88.5319 276° West  Level FlightAware Approximate
06:51PM 30.9364 -88.6081 276° West 378 435 40,000  Level Houston Center
06:52PM 30.9589 -88.7264 283° West 381 438 40,000  Level Houston Center
06:53PM 30.9833 -88.8456 283° West 379 436 40,000  Level Houston Center
06:54PM 31.0072 -88.9628 283° West 373 429 40,000  Level Houston Center
06:55PM 31.0353 -89.1044 283° West 375 432 40,000  Level Houston Center
06:57PM 30.9989 -89.2347 252° West  Level FlightAware Approximate
06:57PM 31.0836 -89.3419 252° West 376 433 40,000  Level Houston Center
06:59PM 31.1075 -89.4603 283° West 375 432 40,000  Level Houston Center
07:00PM 31.1311 -89.5803 283° West 377 434 40,000  Level Houston Center
07:01PM 31.1586 -89.7217 283° West 373 429 40,000  Level Houston Center
07:02PM 31.1819 -89.8397 283° West 372 428 40,000  Level Houston Center
07:04PM 31.2269 -90.0764 283° West 373 429 40,000  Level Houston Center
07:05PM 31.2494 -90.1964 282° West 378 435 40,000  Level Houston Center
07:06PM 31.2725 -90.3142 283° West 375 432 40,000  Level Houston Center
07:07PM 31.3000 -90.4561 283° West 374 430 40,000  Level Houston Center
07:08PM 31.3208 -90.5750 282° West 375 432 40,000  Level Houston Center
07:09PM 31.3450 -90.6947 283° West 378 435 40,000  Level Houston Center
07:10PM 31.3669 -90.8164 282° West 382 440 40,000  Level Houston Center
07:11PM 31.3906 -90.9378 283° West 382 440 40,000  Level Houston Center
07:12PM 31.4119 -91.0614 281° West 386 444 40,000  Level Houston Center
07:13PM 31.4369 -91.2042 282° West 387 445 40,000  Level Houston Center
07:15PM 31.4538 -91.4010 276° West  Level FlightAware Approximate
07:15PM 31.4819 -91.4497 276° West 385 443 40,000  Level Houston Center
07:16PM 31.5025 -91.5719 281° West 383 441 40,000  Level Houston Center
07:17PM 31.5253 -91.6947 282° West 385 443 40,000  Level Houston Center
07:19PM 31.5221 -91.8779 269° West  Level FlightAware Approximate
07:20PM 31.5922 -92.0781 281° West 386 444 40,000  Level Houston Center
07:21PM 31.6133 -92.2031 281° West 390 449 40,000  Level Houston Center
07:24PM 31.6714 -92.5097 283° West 398 458 40,000  Level Fort Worth Center
07:24PM 31.6819 -92.5978 278° West 387 445 40,000  Level Houston Center
07:26PM 31.6818 -92.7431 281° West  Level Estimated
07:26PM 31.7236 -92.8450 281° West 384 442 40,000  Level Houston Center
07:28PM 31.7675 -93.1114 281° West 383 441 40,000  Level Houston Center
07:29PM 31.7889 -93.2336 282° West 382 440 40,000  Level Houston Center
07:30PM 31.8100 -93.3606 281° West 376 433 40,000  Level Houston Center
07:31PM 31.8286 -93.4806 280° West 374 430 40,000  Level Houston Center
07:32PM 31.8639 -93.5953 290° West 373 429 40,000  Level Houston Center
07:34PM 31.9022 -93.7081 292° West 373 429 40,000  Level Houston Center
07:35PM 31.9414 -93.8417 289° West 371 427 40,000  Level Fort Worth Center
07:36PM 31.9758 -93.9553 290° West 371 427 40,000  Level Fort Worth Center
07:37PM 32.0147 -94.0714 292° West 371 427 40,000  Level Fort Worth Center
07:38PM 32.0489 -94.1856 289° West 371 427 40,000  Level Fort Worth Center
07:40PM 32.1192 -94.4236 289° West 381 438 40,000  Level Houston Center
07:41PM 32.1556 -94.5400 290° West 388 447 40,000  Level Fort Worth Center
07:42PM 32.1917 -94.6592 290° West 388 447 40,000  Level Fort Worth Center
07:44PM 32.2506 -94.8783 288° West 383 441 40,000  Level Fort Worth Center
07:45PM 32.2992 -95.0169 293° West 389 448 40,000  Level Fort Worth Center
07:46PM 32.3306 -95.1417 287° West 395 455 40,000  Level Fort Worth Center
07:47PM 32.3681 -95.2564 291° West 395 455 40,000  Level Fort Worth Center
07:48PM 32.4017 -95.3808 288° West 395 455 40,000  Level Fort Worth Center
07:49PM 32.4389 -95.5033 290° West 395 455 40,000  Level Fort Worth Center
07:51PM 32.5028 -95.7333 288° West 400 460 40,000  Level Fort Worth Center
07:52PM 32.5422 -95.8683 289° West 400 460 40,000  Level Fort Worth Center
07:54PM 32.6117 -96.1136 289° West 400 460 40,000  Level Fort Worth Center
07:55PM 32.6442 -96.2242 289° West 400 460 40,000  Level Fort Worth Center
07:56PM 32.6828 -96.3619 288° West 400 460 40,000  Level Fort Worth Center
07:58PM 32.7514 -96.6131 288° West 400 460 40,000  Level Fort Worth Center
07:59PM 32.7836 -96.7239 289° West 400 460 40,000  Level Fort Worth Center
08:01PM 32.8536 -96.9708 289° West 394 453 40,000  Level Fort Worth Center
08:02PM 32.8914 -97.1092 288° West 402 463 40,000  Level Fort Worth Center
08:03PM 32.9231 -97.2203 289° West 396 456 40,000  Level Fort Worth Center
08:05PM 32.9942 -97.4678 289° West 401 461 40,000  Level Fort Worth Center
08:07PM 33.0625 -97.7356 287° West 406 467 40,000  Level Fort Worth Center
08:08PM 33.0956 -97.8597 288° West 394 453 40,000  Level Fort Worth Center
08:09PM 33.1283 -97.9839 288° West 399 459 40,000  Level Fort Worth Center
08:10PM 33.1611 -98.1083 287° West 399 459 40,000  Level Fort Worth Center
08:11PM 33.1939 -98.2328 288° West 405 466 40,000  Level Fort Worth Center
08:12PM 33.2283 -98.3597 288° West 398 458 40,000  Level Fort Worth Center
08:13PM 33.2569 -98.4692 287° West 403 464 40,000  Level Fort Worth Center
08:14PM 33.2911 -98.5939 288° West 398 458 40,000  Level Fort Worth Center
08:16PM 33.3553 -98.8458 287° West 403 464 40,000  Level Fort Worth Center
08:18PM 33.4211 -99.0958 288° West 403 464 40,000  Level Fort Worth Center
08:19PM 33.4528 -99.2208 287° West 403 464 40,000  Level Fort Worth Center
08:20PM 33.4842 -99.3461 287° West 403 464 40,000  Level Fort Worth Center
08:22PM 33.5489 -99.5992 287° West 403 464 40,000  Level Fort Worth Center
08:23PM 33.5800 -99.7247 287° West 403 464 40,000  Level Fort Worth Center
08:24PM 33.6111 -99.8503 287° West 403 464 40,000  Level Fort Worth Center
08:26PM 33.6789 -100.1325 286° West 397 457 40,000  Level Albuquerque Center
08:27PM 33.7053 -100.2372 287° West 403 464 40,000  Level Fort Worth Center
08:28PM 33.7378 -100.3633 287° West 403 464 40,000  Level Fort Worth Center
08:29PM 33.7681 -100.4917 286° West 403 464 40,000  Level Fort Worth Center
08:31PM 33.8397 -100.7947 286° West 397 457 40,000  Level Albuquerque Center
08:32PM 33.8583 -100.8725 286° West 403 464 40,000  Level Fort Worth Center
08:34PM 33.8886 -101.1289 278° West 388 447 40,000  Level Fort Worth Center
08:35PM 33.8967 -101.2769 274° West 388 447 40,000  Level Fort Worth Center
08:36PM 33.8928 -101.4683 269° West 392 451 40,000  Level Albuquerque Center
08:37PM 33.8925 -101.5394 270° West 390 449 40,000  Level Fort Worth Center
08:38PM 33.8886 -101.6569 268° West 401 461 40,000  Level Fort Worth Center
08:39PM 33.8769 -101.8717 266° West 405 466 40,000  Level Albuquerque Center
08:40PM 33.8764 -101.9439 269° West 406 467 40,000  Level Fort Worth Center
08:41PM 33.8719 -102.0664 268° West 406 467 40,000  Level Fort Worth Center
08:42PM 33.8558 -102.2131 263° West 406 467 40,000  Level Fort Worth Center
08:43PM 33.8450 -102.3322 264° West 406 467 40,000  Level Fort Worth Center
08:44PM 33.8267 -102.4789 261° West 401 461 40,000  Level Fort Worth Center
08:46PM 33.7789 -102.7258 257° West 390 449 40,000  Level Fort Worth Center
08:47PM 33.7400 -102.9328 257° West 388 447 40,000  Level Albuquerque Center
08:48PM 33.7275 -103.0606 263° West 388 447 40,000  Level Albuquerque Center
08:49PM 33.7539 -103.2086 282° West 383 441 40,000  Level Albuquerque Center
08:50PM 33.7914 -103.3328 290° West 395 455 40,000 -360 Level Albuquerque Center
08:51PM 33.8314 -103.4508 292° West 390 449 39,300 -1,020 Descending Albuquerque Center
08:52PM 33.8700 -103.5686 292° West 382 440 38,000 -660 Descending Albuquerque Center
08:54PM 33.9144 -103.7000 292° West 381 438 38,000  Level Albuquerque Center
08:55PM 33.9539 -103.8194 292° West 384 442 38,000  Level Albuquerque Center
08:56PM 33.9919 -103.9361 292° West 378 435 38,000  Level Albuquerque Center
08:57PM 34.0264 -104.0447 291° West 375 432 38,000  Level Albuquerque Center
08:58PM 34.0658 -104.1636 292° West 378 435 38,000  Level Albuquerque Center
08:59PM 34.1111 -104.3056 291° West 382 440 38,000  Level Albuquerque Center
09:00PM 34.1517 -104.4289 292° West 389 448 38,000  Level Albuquerque Center
09:01PM 34.1906 -104.5514 291° West 387 445 38,000  Level Albuquerque Center
09:02PM 34.2286 -104.6719 291° West 383 441 38,000  Level Albuquerque Center
09:03PM 34.2681 -104.7939 291° West 383 441 38,000  Level Albuquerque Center
09:05PM 34.3467 -105.0414 291° West 389 448 38,000  Level Albuquerque Center
09:06PM 34.3856 -105.1647 291° West 389 448 38,000  Level Albuquerque Center
09:08PM 34.4617 -105.4094 291° West 385 443 38,000  Level Albuquerque Center
09:09PM 34.5006 -105.5319 291° West 385 443 38,000  Level Albuquerque Center
09:10PM 34.5386 -105.6567 290° West 388 447 38,000  Level Albuquerque Center
09:12PM 34.5956 -105.8507 290° West  Level FlightAware Approximate
09:13PM 34.6528 -106.0311 290° West 391 450 38,000  Level Albuquerque Center
09:15PM 34.7061 -106.2201 289° West  Level FlightAware Approximate
09:16PM 34.7686 -106.4178 289° West 395 455 38,000  Level Albuquerque Center
09:17PM 34.8078 -106.5447 291° West 398 458 38,000  Level Albuquerque Center
09:18PM 34.8494 -106.6867 290° West 398 458 38,000  Level Albuquerque Center
09:19PM 34.8853 -106.8089 290° West 400 460 38,000  Level Albuquerque Center
09:21PM 34.9345 -106.9822 289° West  Level FlightAware Approximate
09:21PM 34.9628 -107.0669 289° West 393 452 38,000  Level Albuquerque Center
09:22PM 34.9972 -107.1806 290° West 399 459 38,000  Level Albuquerque Center
09:23PM 35.0331 -107.3114 289° West 404 465 38,000  Level Albuquerque Center
09:24PM 35.0769 -107.4631 290° West 397 457 38,000  Level Albuquerque Center
09:25PM 35.1158 -107.5975 290° West 398 458 38,000  Level Albuquerque Center
09:26PM 35.1378 -107.7247 282° West 403 464 38,000  Level Albuquerque Center
09:27PM 35.1375 -107.8536 270° West 398 458 38,000  Level Albuquerque Center
09:28PM 35.1408 -108.0017 272° West 391 450 38,000  Level Albuquerque Center
09:29PM 35.1419 -108.1264 271° West 386 444 38,000  Level Albuquerque Center
09:30PM 35.1447 -108.2514 272° West 384 442 38,000  Level Albuquerque Center
09:31PM 35.1472 -108.4017 271° West 392 451 38,000  Level Albuquerque Center
09:32PM 35.1486 -108.5300 271° West 394 453 38,000  Level Albuquerque Center
09:33PM 35.1508 -108.6778 271° West 390 449 38,000  Level Albuquerque Center
09:34PM 35.1522 -108.8053 271° West 390 449 38,000  Level Albuquerque Center
09:35PM 35.1536 -108.9344 271° West 394 453 38,000  Level Albuquerque Center
09:36PM 35.1553 -109.0886 271° West 402 463 38,000  Level Albuquerque Center
09:37PM 35.1569 -109.2203 271° West 404 465 38,000  Level Albuquerque Center
09:39PM 35.1572 -109.3494 270° West 399 459 38,000  Level Albuquerque Center
09:40PM 35.1583 -109.4967 271° West 391 450 38,000  Level Albuquerque Center
09:41PM 35.1586 -109.6231 270° West 388 447 38,000  Level Albuquerque Center
09:42PM 35.1581 -109.7722 270° West 391 450 38,000  Level Albuquerque Center
09:44PM 35.1614 -110.0331 271° West 397 457 38,000  Level Albuquerque Center
09:45PM 35.1597 -110.1778 269° West 386 444 38,000  Level Albuquerque Center
09:46PM 35.1583 -110.3003 269° West 380 437 38,000  Level Albuquerque Center
09:47PM 35.1567 -110.4281 269° West 386 444 38,000 -180 Level Albuquerque Center
09:48PM 35.1342 -110.5744 259° West 401 461 37,700 -720 Descending Albuquerque Center
09:49PM 35.0861 -110.6867 242° Southwest 393 452 36,600 -1,440 Descending Albuquerque Center
09:50PM 35.0406 -110.7925 242° Southwest 380 437 34,800 -1,860 Descending Albuquerque Center
09:51PM 34.9922 -110.9064 243° Southwest 380 437 32,900 -2,100 Descending Albuquerque Center
09:52PM 34.9322 -111.0494 243° Southwest 394 453 30,600 -2,280 Descending Albuquerque Center
09:53PM 34.8550 -111.1533 228° Southwest 410 472 28,300 -2,220 Descending Albuquerque Center
09:54PM 34.7722 -111.2503 246° West 414 476 26,100 -2,160 Descending Albuquerque Center
09:55PM 34.7806 -111.3555 246° West  Level FlightAware Approximate
09:55PM 34.6917 -111.3469 225° Southwest 410 472 23,900  Level Albuquerque Center
09:56PM 34.6169 -111.4350 224° Southwest 386 444 21,800 -1,920 Descending Albuquerque Center
09:57PM 34.5458 -111.5186 224° Southwest 367 422 20,000 -1,860 Descending Albuquerque Center
09:58PM 34.4767 -111.5994 224° Southwest 351 404 18,000 -1,920 Descending Albuquerque Center
09:59PM 34.4053 -111.6831 224° Southwest 356 410 16,100 -1,800 Descending Albuquerque Center
10:01PM 34.3203 -111.8584 240° Southwest  Level FlightAware Approximate
10:01PM 34.2731 -111.8364 240° Southwest 299 344 12,600  Level Albuquerque Center
10:02PM 34.2217 -111.8972 224° Southwest 272 313 11,200 -840 Descending Albuquerque Center
10:03PM 34.1539 -111.9192 195° South 277 319 10,900 -1,440 Descending Albuquerque Center
10:04PM 34.0811 -111.8933 164° South 278 320 8,300 -1,020 Descending Albuquerque Center
10:06PM 33.9333 -111.8667 171° South 246 283 7,900 -480 Descending Phoenix TRACON
10:07PM 33.8667 -111.8500 168° South 224 258 6,900 -660 Descending Phoenix TRACON
10:08PM 33.8142 -111.8553 185° South 211 243 6,600 -840 Descending Albuquerque Center
10:09PM 33.7625 -111.8644 188° South 199 229 5,200 -1,320 Descending Albuquerque Center
10:10PM 33.7128 -111.8744 189° South 189 217 4,000 -1,140 Descending Albuquerque Center
10:11PM 33.6703 -111.8797 186° South 173 199 2,900 -1,080 Descending Albuquerque Center
10:12PM 33.6344 -111.8992 204° Southwest 161 185 1,800 -1,140 Descending Albuquerque Center
10:14PM 33.6229 -111.9105 180° South  Level Estimated